createdAt,value
2023-04-18T00:02:04.625Z,18.10
2023-04-18T00:04:34.022Z,17.80
2023-04-18T00:07:01.555Z,20.55
2023-04-18T00:09:28.792Z,19.67
2023-04-18T00:11:55.950Z,17.17
2023-04-18T00:14:23.129Z,19.67
2023-04-18T00:16:51.607Z,19.13
2023-04-18T00:19:18.846Z,19.33
2023-04-18T00:21:46.061Z,21.58
2023-04-18T00:24:13.665Z,19.63
2023-04-18T00:26:41.003Z,20.30
2023-04-18T00:29:08.156Z,21.52
2023-04-18T00:31:35.294Z,21.90
2023-04-18T00:34:02.519Z,25.48
2023-04-18T00:36:29.697Z,21.90
2023-04-18T00:38:56.853Z,22.38
2023-04-18T00:41:27.522Z,23.13
2023-04-18T00:43:55.088Z,23.20
2023-04-18T00:46:22.392Z,24.00
2023-04-18T00:48:50.251Z,22.92
2023-04-18T00:51:17.839Z,23.45
2023-04-18T00:53:46.066Z,27.15
2023-04-18T00:56:13.455Z,25.48
2023-04-18T00:58:40.959Z,25.02
2023-04-18T01:01:09.553Z,28.67
2023-04-18T01:03:37.443Z,26.85
2023-04-18T01:06:04.992Z,29.88
2023-04-18T01:08:32.380Z,31.23
2023-04-18T01:10:59.532Z,28.35
2023-04-18T01:13:26.706Z,27.90
2023-04-18T01:15:55.652Z,27.77
2023-04-18T01:18:22.876Z,27.52
2023-04-18T01:20:53.166Z,27.17
2023-04-18T01:23:21.419Z,27.00
2023-04-18T01:25:51.763Z,29.52
2023-04-18T01:28:22.780Z,28.27
2023-04-18T01:30:49.983Z,28.67
2023-04-18T01:33:17.365Z,26.63
2023-04-18T01:35:44.517Z,28.50
2023-04-18T01:38:11.707Z,28.15
2023-04-18T01:40:38.876Z,29.33
2023-04-18T01:43:06.031Z,28.10
2023-04-18T01:45:33.179Z,30.27
2023-04-18T01:48:00.334Z,30.00
2023-04-18T01:50:27.612Z,28.48
2023-04-18T01:52:54.857Z,28.92
2023-04-18T01:55:22.284Z,28.58
2023-04-18T01:57:50.966Z,29.23
2023-04-18T02:00:18.875Z,31.00
2023-04-18T02:02:46.610Z,32.28
2023-04-18T02:05:13.944Z,32.63
2023-04-18T02:07:42.661Z,30.23
2023-04-18T02:10:11.282Z,29.92
2023-04-18T02:12:38.448Z,32.45
2023-04-18T02:15:06.683Z,30.15
2023-04-18T02:17:35.562Z,30.23
2023-04-18T02:20:02.761Z,32.50
2023-04-18T02:22:29.954Z,31.63
2023-04-18T02:24:57.085Z,32.15
2023-04-18T02:27:24.253Z,27.08
2023-04-18T02:29:51.517Z,26.75
2023-04-18T02:32:18.784Z,30.33
2023-04-18T02:34:45.993Z,29.90
2023-04-18T02:37:13.150Z,29.73
2023-04-18T02:39:40.346Z,28.75
2023-04-18T02:42:07.498Z,29.35
2023-04-18T02:44:34.715Z,29.75
2023-04-18T02:47:01.896Z,25.95
2023-04-18T02:49:29.200Z,25.50
2023-04-18T02:51:57.027Z,25.95
2023-04-18T02:54:24.898Z,27.52
2023-04-18T02:56:54.850Z,25.50
2023-04-18T02:59:22.030Z,26.95
2023-04-18T03:01:49.192Z,25.38
2023-04-18T03:04:16.582Z,27.90
2023-04-18T03:06:43.959Z,27.67
2023-04-18T03:09:11.139Z,26.85
2023-04-18T03:11:38.339Z,25.38
2023-04-18T03:14:05.721Z,31.25
2023-04-18T03:16:33.357Z,30.38
2023-04-18T03:19:01.485Z,25.25
2023-04-18T03:21:28.698Z,31.63
2023-04-18T03:23:56.148Z,28.10
2023-04-18T03:26:25.264Z,29.15
2023-04-18T03:28:52.532Z,26.33
2023-04-18T03:31:20.316Z,25.52
2023-04-18T03:33:48.258Z,30.05
2023-04-18T03:36:19.077Z,26.73
2023-04-18T03:38:46.351Z,25.40
2023-04-18T03:41:13.512Z,26.77
2023-04-18T03:43:40.641Z,28.83
2023-04-18T03:46:07.795Z,26.13
2023-04-18T03:48:37.115Z,27.23
2023-04-18T03:51:05.997Z,25.83
2023-04-18T03:53:33.135Z,26.65
2023-04-18T03:56:00.286Z,27.05
2023-04-18T03:58:27.543Z,26.25
2023-04-18T04:00:54.730Z,28.25
2023-04-18T04:03:22.004Z,26.50
2023-04-18T04:05:49.259Z,25.13
2023-04-18T04:08:16.472Z,26.10
2023-04-18T04:10:43.705Z,27.35
2023-04-18T04:13:10.880Z,28.35
2023-04-18T04:15:38.933Z,30.85
2023-04-18T04:18:06.817Z,29.95
2023-04-18T04:20:34.051Z,28.88
2023-04-18T04:23:01.355Z,28.08
2023-04-18T04:25:28.784Z,28.90
2023-04-18T04:27:56.073Z,27.40
2023-04-18T04:30:23.459Z,29.10
2023-04-18T04:32:51.020Z,28.77
2023-04-18T04:35:18.686Z,28.15
2023-04-18T04:37:45.927Z,27.95
2023-04-18T04:40:13.411Z,27.10
2023-04-18T04:42:41.121Z,28.63
2023-04-18T04:45:10.689Z,29.25
2023-04-18T04:47:38.010Z,30.15
2023-04-18T04:50:07.691Z,28.42
2023-04-18T04:52:34.878Z,29.20
2023-04-18T04:55:02.083Z,29.35
2023-04-18T04:57:29.224Z,29.73
2023-04-18T04:59:56.359Z,31.58
2023-04-18T05:02:23.775Z,29.73
2023-04-18T05:04:51.236Z,29.75
2023-04-18T05:07:18.459Z,34.22
2023-04-18T05:09:45.673Z,30.92
2023-04-18T05:12:12.827Z,31.42
2023-04-18T05:14:39.978Z,35.88
2023-04-18T05:17:07.618Z,31.13
2023-04-18T05:19:35.194Z,33.03
2023-04-18T05:22:03.070Z,29.80
2023-04-18T05:24:32.523Z,29.63
2023-04-18T05:26:59.941Z,36.00
2023-04-18T05:29:27.132Z,35.33
2023-04-18T05:31:54.755Z,30.02
2023-04-18T05:34:21.911Z,32.78
2023-04-18T05:36:49.249Z,30.27
2023-04-18T05:39:16.753Z,31.17
2023-04-18T05:41:43.901Z,30.83
2023-04-18T05:44:11.083Z,31.10
2023-04-18T05:46:38.318Z,34.95
2023-04-18T05:49:05.672Z,28.80
2023-04-18T05:51:32.865Z,33.60
2023-04-18T05:54:00.005Z,34.08
2023-04-18T05:56:27.296Z,32.85
2023-04-18T05:58:54.453Z,32.38
2023-04-18T06:01:21.789Z,31.30
2023-04-18T06:03:49.076Z,32.67
2023-04-18T06:06:16.486Z,32.55
2023-04-18T06:08:43.761Z,29.60
2023-04-18T06:11:11.563Z,33.25
2023-04-18T06:13:38.856Z,30.55
2023-04-18T06:16:06.790Z,31.58
2023-04-18T06:18:34.224Z,32.83
2023-04-18T06:21:01.371Z,33.38
2023-04-18T06:23:28.624Z,30.95
2023-04-18T06:25:57.036Z,34.45
2023-04-18T06:28:24.559Z,30.17
2023-04-18T06:30:51.715Z,30.05
2023-04-18T06:33:18.871Z,28.80
2023-04-18T06:35:46.503Z,26.58
2023-04-18T06:38:13.691Z,29.02
2023-04-18T06:40:40.851Z,32.58
2023-04-18T06:43:08.088Z,27.17
2023-04-18T06:45:35.774Z,26.00
2023-04-18T06:48:04.240Z,24.58
2023-04-18T06:50:31.679Z,24.75
2023-04-18T06:52:58.821Z,24.52
2023-04-18T06:55:26.000Z,22.65
2023-04-18T06:57:53.247Z,24.05
2023-04-18T07:00:20.741Z,25.13
2023-04-18T07:02:48.640Z,24.77
2023-04-18T07:05:15.877Z,21.98
2023-04-18T07:07:43.007Z,23.13
2023-04-18T07:10:11.421Z,22.63
2023-04-18T07:12:38.648Z,22.30
2023-04-18T07:15:06.621Z,22.67
2023-04-18T07:17:33.827Z,22.52
2023-04-18T07:20:01.261Z,25.02
2023-04-18T07:22:28.432Z,21.75
2023-04-18T07:24:55.583Z,22.55
2023-04-18T07:27:22.717Z,20.45
2023-04-18T07:29:49.893Z,20.73
2023-04-18T07:32:17.090Z,20.63
2023-04-18T07:34:45.008Z,20.65
2023-04-18T07:37:14.846Z,19.88
2023-04-18T07:39:42.342Z,19.15
2023-04-18T07:42:11.187Z,18.50
2023-04-18T07:44:38.308Z,19.48
2023-04-18T07:47:11.162Z,21.02
2023-04-18T07:49:38.935Z,17.83
2023-04-18T07:52:06.189Z,17.33
2023-04-18T07:54:33.375Z,19.48
2023-04-18T07:57:00.794Z,17.70
2023-04-18T07:59:29.630Z,19.17
2023-04-18T08:01:56.802Z,17.35
2023-04-18T08:04:24.369Z,17.35
2023-04-18T08:06:52.779Z,18.65
2023-04-18T08:09:21.607Z,17.10
2023-04-18T08:11:48.849Z,16.58
2023-04-18T08:14:16.036Z,17.27
2023-04-18T08:16:43.272Z,16.95
2023-04-18T08:19:10.505Z,18.10
2023-04-18T08:21:39.097Z,16.17
2023-04-18T08:24:06.726Z,13.65
2023-04-18T08:26:33.865Z,14.02
2023-04-18T08:29:01.076Z,13.52
2023-04-18T08:31:28.510Z,11.73
2023-04-18T08:33:55.699Z,10.75
2023-04-18T08:36:22.892Z,10.25
2023-04-18T08:38:50.138Z,10.32
2023-04-18T08:41:23.279Z,12.00
2023-04-18T08:43:50.949Z,10.75
2023-04-18T08:46:19.019Z,11.10
2023-04-18T08:48:50.074Z,11.57
2023-04-18T08:51:17.598Z,11.65
2023-04-18T08:53:45.403Z,12.13
2023-04-18T08:56:14.654Z,10.00
2023-04-18T08:58:44.986Z,12.38
2023-04-18T09:01:13.492Z,10.88
2023-04-18T09:03:43.078Z,11.43
2023-04-18T09:06:14.113Z,10.38
2023-04-18T09:08:43.697Z,12.10
2023-04-18T09:11:29.524Z,13.23
2023-04-18T09:13:58.926Z,13.55
2023-04-18T09:16:27.757Z,14.10
2023-04-18T09:19:18.462Z,12.35
2023-04-18T09:21:47.075Z,12.15
2023-04-18T09:24:24.007Z,13.32
2023-04-18T09:26:53.731Z,12.52
2023-04-18T09:29:22.496Z,11.45
2023-04-18T09:32:01.669Z,13.75
2023-04-18T09:34:29.284Z,12.32
2023-04-18T09:37:13.778Z,13.82
2023-04-18T09:39:44.412Z,13.93
2023-04-18T09:42:13.706Z,14.55
2023-04-18T09:45:06.697Z,12.52
2023-04-18T09:47:36.623Z,13.48
2023-04-18T09:50:07.567Z,15.30
2023-04-18T09:52:41.299Z,13.30
2023-04-18T09:55:11.669Z,12.45
2023-04-18T09:57:40.670Z,15.60
2023-04-18T10:00:30.095Z,12.70
2023-04-18T10:03:08.675Z,13.75
2023-04-18T10:05:40.503Z,13.65
2023-04-18T10:08:09.311Z,15.30
2023-04-18T10:10:38.657Z,16.30
2023-04-18T10:13:11.592Z,15.10
2023-04-18T10:15:38.855Z,15.32
2023-04-18T10:18:14.143Z,14.82
2023-04-18T10:20:42.010Z,16.23
2023-04-18T10:23:30.895Z,12.27
2023-04-18T10:25:59.064Z,12.85
2023-04-18T10:28:27.656Z,12.77
2023-04-18T10:31:02.936Z,14.00
2023-04-18T10:33:42.377Z,17.38
2023-04-18T10:36:09.856Z,13.32
2023-04-18T10:38:47.370Z,12.50
2023-04-18T10:41:25.310Z,17.10
2023-04-18T10:44:08.739Z,13.85
2023-04-18T10:47:23.485Z,15.73
2023-04-18T10:49:56.938Z,14.38
2023-04-18T10:52:24.282Z,13.95
2023-04-18T10:54:56.974Z,17.45
2023-04-18T10:57:36.935Z,15.35
2023-04-18T11:00:06.046Z,16.67
2023-04-18T11:02:33.458Z,12.50
2023-04-18T11:05:04.792Z,13.63
2023-04-18T11:07:48.624Z,14.27
2023-04-18T11:10:22.552Z,17.25
2023-04-18T11:12:51.180Z,13.93
2023-04-18T11:15:22.237Z,14.30
2023-04-18T11:18:02.594Z,12.70
2023-04-18T11:20:46.272Z,13.38
2023-04-18T11:23:23.854Z,14.30
2023-04-18T11:25:54.433Z,14.52
2023-04-18T11:28:24.756Z,16.08
2023-04-18T11:30:52.044Z,13.95
2023-04-18T11:33:19.236Z,16.73
2023-04-18T11:35:47.061Z,13.82
2023-04-18T11:38:15.985Z,14.68
2023-04-18T11:40:51.035Z,13.18
2023-04-18T11:43:24.950Z,13.55
2023-04-18T11:45:58.171Z,13.70
2023-04-18T11:48:41.829Z,14.23
2023-04-18T11:51:38.157Z,12.02
2023-04-18T11:54:05.710Z,12.02
2023-04-18T11:56:34.587Z,12.52
2023-04-18T11:59:09.624Z,10.13
2023-04-18T12:01:36.794Z,11.90
2023-04-18T12:04:07.319Z,13.93
2023-04-18T12:06:48.022Z,10.07
2023-04-18T12:09:17.116Z,10.82
2023-04-18T12:11:44.733Z,13.18
2023-04-18T12:14:22.251Z,12.23
2023-04-18T12:16:50.802Z,11.32
2023-04-18T12:19:20.455Z,10.88
2023-04-18T12:22:06.486Z,13.65
2023-04-18T12:24:33.692Z,11.93
2023-04-18T12:27:00.919Z,10.68
2023-04-18T12:29:29.486Z,11.88
2023-04-18T12:31:56.924Z,9.88
2023-04-18T12:34:24.230Z,12.25
2023-04-18T12:36:52.324Z,9.93
2023-04-18T12:39:19.656Z,13.45
2023-04-18T12:41:49.068Z,10.60
2023-04-18T12:44:17.271Z,11.38
2023-04-18T12:46:44.496Z,12.43
2023-04-18T12:49:11.707Z,11.23
2023-04-18T12:51:39.703Z,12.07
2023-04-18T12:54:06.872Z,11.70
2023-04-18T12:56:34.121Z,11.60
2023-04-18T12:59:01.281Z,10.18
2023-04-18T13:01:28.502Z,10.15
2023-04-18T13:04:08.100Z,9.52
2023-04-18T13:06:39.445Z,13.73
2023-04-18T13:09:06.612Z,10.02
2023-04-18T13:11:33.806Z,10.65
2023-04-18T13:14:00.940Z,12.55
2023-04-18T13:16:28.132Z,11.80
2023-04-18T13:18:55.352Z,13.23
2023-04-18T13:21:24.897Z,11.43
2023-04-18T13:23:52.044Z,14.85
2023-04-18T13:26:19.191Z,10.02
2023-04-18T13:28:46.474Z,11.98
2023-04-18T13:31:15.103Z,11.05
2023-04-18T13:33:44.120Z,14.57
2023-04-18T13:36:11.296Z,12.68
2023-04-18T13:38:39.012Z,14.95
2023-04-18T13:41:12.225Z,16.25
2023-04-18T13:43:40.297Z,16.17
2023-04-18T13:46:07.468Z,14.45
2023-04-18T13:48:34.636Z,16.75
2023-04-18T13:51:02.963Z,12.70
2023-04-18T13:53:31.088Z,15.77
2023-04-18T13:55:59.014Z,16.38
2023-04-18T13:58:26.154Z,17.23
2023-04-18T14:00:53.910Z,16.60
2023-04-18T14:03:21.247Z,20.13
2023-04-18T14:05:48.531Z,14.25
2023-04-18T14:08:16.817Z,21.98
2023-04-18T14:10:43.961Z,15.88
2023-04-18T14:13:11.509Z,18.10
2023-04-18T14:15:38.722Z,16.35
2023-04-18T14:18:06.403Z,14.20
2023-04-18T14:20:34.692Z,15.98
2023-04-18T14:23:02.001Z,16.30
2023-04-18T14:25:30.153Z,13.82
2023-04-18T14:28:09.372Z,16.25
2023-04-18T14:30:38.643Z,15.90
2023-04-18T14:33:06.946Z,15.70
2023-04-18T14:35:34.209Z,16.95
2023-04-18T14:38:01.616Z,16.58
2023-04-18T14:40:29.508Z,20.10
2023-04-18T14:42:57.993Z,13.32
2023-04-18T14:45:25.147Z,16.35
2023-04-18T14:47:52.307Z,16.08
2023-04-18T14:50:19.480Z,17.08
2023-04-18T14:52:46.668Z,19.73
2023-04-18T14:55:13.818Z,17.95
2023-04-18T14:57:40.969Z,16.98
2023-04-18T15:00:12.544Z,16.80
2023-04-18T15:02:40.420Z,19.20
2023-04-18T15:05:08.874Z,17.90
2023-04-18T15:07:37.670Z,19.38
2023-04-18T15:10:05.619Z,18.45
2023-04-18T15:12:32.838Z,20.08
2023-04-18T15:15:00.329Z,18.55
2023-04-18T15:17:27.868Z,18.55
2023-04-18T15:19:55.023Z,20.13
2023-04-18T15:22:22.726Z,19.35
2023-04-18T15:24:49.873Z,16.08
2023-04-18T15:27:17.074Z,20.80
2023-04-18T15:29:44.208Z,18.35
2023-04-18T15:32:12.380Z,18.42
2023-04-18T15:34:39.562Z,18.83
2023-04-18T15:37:06.947Z,21.92
2023-04-18T15:39:34.113Z,19.58
2023-04-18T15:42:02.140Z,26.00
2023-04-18T15:44:30.557Z,20.77
2023-04-18T15:46:58.186Z,17.23
2023-04-18T15:49:25.671Z,16.20
2023-04-18T15:51:52.805Z,18.33
2023-04-18T15:54:19.951Z,19.05
2023-04-18T15:56:47.104Z,20.08
2023-04-18T15:59:14.654Z,21.90
2023-04-18T16:01:43.867Z,21.35
2023-04-18T16:04:12.799Z,18.23
2023-04-18T16:06:40.586Z,18.27
2023-04-18T16:09:08.077Z,20.17
2023-04-18T16:11:35.285Z,20.30
2023-04-18T16:14:02.423Z,18.20
2023-04-18T16:16:29.713Z,18.83
2023-04-18T16:18:56.946Z,19.95
2023-04-18T16:21:24.112Z,21.25
2023-04-18T16:23:51.562Z,22.27
2023-04-18T16:26:18.742Z,24.13
2023-04-18T16:28:46.205Z,20.65
2023-04-18T16:31:14.672Z,18.58
2023-04-18T16:33:42.325Z,16.73
2023-04-18T16:36:09.748Z,18.42
2023-04-18T16:38:36.963Z,19.67
2023-04-18T16:41:04.148Z,18.23
2023-04-18T16:43:31.373Z,20.83
2023-04-18T16:46:00.246Z,18.52
2023-04-18T16:48:28.893Z,20.83
2023-04-18T16:50:56.897Z,20.77
2023-04-18T16:53:24.717Z,16.23
2023-04-18T16:55:53.045Z,19.00
2023-04-18T16:58:21.535Z,19.40
2023-04-18T17:00:48.754Z,19.00
2023-04-18T17:03:16.096Z,20.20
2023-04-18T17:05:43.319Z,17.85
2023-04-18T17:08:10.477Z,20.23
2023-04-18T17:10:37.637Z,18.40
2023-04-18T17:13:04.818Z,17.30
2023-04-18T17:15:32.042Z,18.52
2023-04-18T17:18:01.058Z,21.15
2023-04-18T17:20:28.478Z,18.45
2023-04-18T17:22:57.181Z,16.90
2023-04-18T17:25:24.439Z,18.33
2023-04-18T17:27:51.686Z,18.00
2023-04-18T17:30:18.929Z,16.77
2023-04-18T17:32:46.274Z,17.92
2023-04-18T17:35:14.673Z,19.85
2023-04-18T17:37:44.051Z,20.27
2023-04-18T17:40:11.886Z,17.80
2023-04-18T17:42:39.777Z,15.50
2023-04-18T17:45:09.351Z,16.95
2023-04-18T17:47:36.820Z,16.17
2023-04-18T17:50:04.637Z,19.08
2023-04-18T17:52:31.863Z,17.10
2023-04-18T17:55:01.403Z,16.55
2023-04-18T17:57:30.364Z,14.32
2023-04-18T17:59:57.582Z,17.75
2023-04-18T18:02:24.974Z,17.73
2023-04-18T18:04:52.425Z,17.92
2023-04-18T18:07:19.805Z,16.13
2023-04-18T18:09:46.961Z,17.27
2023-04-18T18:12:14.190Z,13.50
2023-04-18T18:14:41.395Z,14.25
2023-04-18T18:17:08.674Z,16.80
2023-04-18T18:19:38.947Z,15.13
2023-04-18T18:22:06.200Z,18.67
2023-04-18T18:24:33.328Z,18.33
2023-04-18T18:27:00.524Z,12.82
2023-04-18T18:29:27.796Z,12.90
2023-04-18T18:31:55.032Z,12.07
2023-04-18T18:34:22.314Z,10.77
2023-04-18T18:36:50.604Z,12.70
2023-04-18T18:39:17.843Z,12.45
2023-04-18T18:41:45.102Z,11.18
2023-04-18T18:44:12.256Z,7.35
2023-04-18T18:46:39.787Z,7.40
2023-04-18T18:49:08.396Z,10.00
2023-04-18T18:51:35.718Z,10.55
2023-04-18T18:54:02.880Z,7.95
2023-04-18T18:56:30.028Z,7.25
2023-04-18T18:58:57.215Z,8.25
2023-04-18T19:01:24.500Z,7.63
2023-04-18T19:03:51.781Z,9.13
2023-04-18T19:06:19.023Z,7.68
2023-04-18T19:08:46.214Z,11.00
2023-04-18T19:11:13.432Z,9.50
2023-04-18T19:13:40.573Z,9.93
2023-04-18T19:16:07.758Z,11.98
2023-04-18T19:18:35.166Z,9.45
2023-04-18T19:21:04.523Z,9.30
2023-04-18T19:23:31.690Z,9.75
2023-04-18T19:25:59.039Z,10.43
2023-04-18T19:28:26.552Z,8.80
2023-04-18T19:30:53.744Z,9.65
2023-04-18T19:33:24.144Z,8.27
2023-04-18T19:35:51.485Z,11.18
2023-04-18T19:38:18.784Z,7.68
2023-04-18T19:40:46.358Z,10.30
2023-04-18T19:43:13.571Z,9.18
2023-04-18T19:45:40.897Z,9.48
2023-04-18T19:48:08.140Z,8.02
2023-04-18T19:50:35.334Z,12.57
2023-04-18T19:53:02.494Z,7.53
2023-04-18T19:55:30.116Z,7.97
2023-04-18T19:57:59.380Z,7.32
2023-04-18T20:00:26.865Z,9.02
2023-04-18T20:02:54.678Z,11.38
2023-04-18T20:05:22.236Z,11.23
2023-04-18T20:07:50.509Z,8.68
2023-04-18T20:10:23.264Z,7.22
2023-04-18T20:12:50.497Z,7.10
2023-04-18T20:15:17.671Z,6.85
2023-04-18T20:17:44.918Z,7.13
2023-04-18T20:20:13.303Z,7.32
2023-04-18T20:22:41.775Z,7.05
2023-04-18T20:25:09.050Z,8.73
2023-04-18T20:27:36.352Z,9.95
2023-04-18T20:30:04.530Z,7.53
2023-04-18T20:32:32.173Z,9.38
2023-04-18T20:34:59.888Z,9.32
2023-04-18T20:37:27.599Z,6.88
2023-04-18T20:39:55.692Z,6.68
2023-04-18T20:42:23.593Z,7.20
2023-04-18T20:44:51.230Z,10.40
2023-04-18T20:47:18.380Z,13.60
2023-04-18T20:49:45.611Z,8.35
2023-04-18T20:52:14.225Z,11.38
2023-04-18T20:54:41.739Z,10.68
2023-04-18T20:57:09.051Z,10.68
2023-04-18T20:59:36.259Z,9.25
2023-04-18T21:02:03.696Z,11.48
2023-04-18T21:04:31.056Z,12.00
2023-04-18T21:06:58.386Z,11.68
2023-04-18T21:09:25.621Z,10.30
2023-04-18T21:11:52.808Z,10.82
2023-04-18T21:14:20.068Z,10.07
2023-04-18T21:16:47.246Z,14.32
2023-04-18T21:19:14.393Z,11.05
2023-04-18T21:21:41.538Z,8.88
2023-04-18T21:24:10.648Z,9.80
2023-04-18T21:26:37.819Z,9.90
2023-04-18T21:29:06.040Z,12.60
2023-04-18T21:31:35.386Z,11.95
2023-04-18T21:34:04.875Z,10.90
2023-04-18T21:36:32.540Z,11.07
2023-04-18T21:39:01.276Z,9.70
2023-04-18T21:41:28.719Z,12.70
2023-04-18T21:43:55.926Z,12.25
2023-04-18T21:46:23.143Z,11.60
2023-04-18T21:48:50.385Z,12.25
2023-04-18T21:51:17.625Z,11.00
2023-04-18T21:53:44.987Z,13.32
2023-04-18T21:56:12.382Z,12.68
2023-04-18T21:58:39.648Z,11.07
2023-04-18T22:01:06.815Z,9.90
2023-04-18T22:03:34.829Z,15.40
2023-04-18T22:06:02.565Z,10.20
2023-04-18T22:08:31.055Z,10.88
2023-04-18T22:10:59.139Z,14.02
2023-04-18T22:13:33.032Z,9.65
2023-04-18T22:16:03.330Z,10.85
2023-04-18T22:18:37.616Z,12.35
2023-04-18T22:21:06.096Z,9.85
2023-04-18T22:23:33.300Z,15.05
2023-04-18T22:26:00.699Z,9.35
2023-04-18T22:28:28.399Z,10.68
2023-04-18T22:30:55.926Z,9.93
2023-04-18T22:33:23.719Z,12.40
2023-04-18T22:35:50.904Z,8.77
2023-04-18T22:38:18.123Z,7.78
2023-04-18T22:40:45.305Z,7.70
2023-04-18T22:43:12.540Z,6.78
2023-04-18T22:45:39.682Z,8.73
2023-04-18T22:48:11.289Z,9.20
2023-04-18T22:50:42.487Z,7.25
2023-04-18T22:53:10.897Z,7.32
2023-04-18T22:55:43.624Z,8.10
2023-04-18T22:58:11.894Z,14.07
2023-04-18T23:00:39.123Z,8.30
2023-04-18T23:03:06.571Z,12.85
2023-04-18T23:05:34.296Z,12.23
2023-04-18T23:08:01.660Z,15.73
2023-04-18T23:10:28.900Z,9.48
2023-04-18T23:12:56.452Z,9.02
2023-04-18T23:15:23.992Z,8.93
2023-04-18T23:17:53.182Z,9.63
2023-04-18T23:20:21.476Z,9.23
2023-04-18T23:22:51.354Z,9.07
2023-04-18T23:25:19.443Z,10.02
2023-04-18T23:27:47.240Z,7.72
2023-04-18T23:30:14.525Z,8.02
2023-04-18T23:32:41.937Z,9.80
2023-04-18T23:35:11.113Z,8.98
2023-04-18T23:37:38.326Z,9.18
2023-04-18T23:40:06.612Z,8.25
2023-04-18T23:42:34.778Z,10.50
2023-04-18T23:45:03.866Z,12.35
2023-04-18T23:47:31.201Z,10.18
2023-04-18T23:49:58.434Z,11.23
2023-04-18T23:52:25.672Z,10.50
2023-04-18T23:54:52.884Z,12.50
2023-04-18T23:57:20.122Z,8.10
2023-04-18T23:59:47.275Z,10.52
